Time;durP1;ratioP1;P1;durP2;ratioP2;P2;SDS_P1;SDS_P2;PMS_P1;PMS_P2;Temp;Humidity;BMP_temperature;BMP_pressure;BME280_temperature;BME280_humidity;BME280_pressure;Samples;Min_cycle;Max_cycle;Signal;HPM_P1;HPM_P2
2021/06/02 00:00:26;;;;;;;1.40;1.00;;;;;;;17.72;40.56;100876.69;5082985;28;20215;-66
2021/06/02 00:02:54;;;;;;;2.30;1.23;;;;;;;17.70;40.75;100873.28;5107086;28;20197;-66
2021/06/02 00:05:21;;;;;;;1.47;1.23;;;;;;;17.69;40.90;100874.25;5082666;28;20204;-66
2021/06/02 00:07:48;;;;;;;2.30;1.23;;;;;;;17.69;40.89;100883.19;5078472;28;20234;-66
2021/06/02 00:10:18;;;;;;;1.60;0.97;;;;;;;17.67;41.15;100873.53;5081395;28;20231;-65
2021/06/02 00:12:44;;;;;;;1.43;1.20;;;;;;;17.68;41.25;100875.25;5077345;28;20208;-66
2021/06/02 00:15:12;;;;;;;1.30;1.03;;;;;;;17.67;41.01;100877.09;5086455;28;20753;-66
2021/06/02 00:17:38;;;;;;;1.73;1.20;;;;;;;17.62;40.85;100871.22;5077017;28;20632;-66
2021/06/02 00:20:07;;;;;;;1.10;1.00;;;;;;;17.59;41.06;100866.09;5079461;28;20203;-65
2021/06/02 00:22:33;;;;;;;2.17;1.00;;;;;;;17.57;41.33;100868.06;5076746;28;20210;-66
2021/06/02 00:24:59;;;;;;;2.60;1.30;;;;;;;17.55;41.62;100862.00;5079831;28;20557;-67
2021/06/02 00:27:29;;;;;;;1.73;1.20;;;;;;;17.54;41.46;100868.38;5077750;28;20208;-66
2021/06/02 00:29:56;;;;;;;1.30;1.20;;;;;;;17.52;41.37;100862.28;5091268;22;20233;-77
2021/06/02 00:32:22;;;;;;;1.70;1.40;;;;;;;17.51;41.48;100865.09;5081285;28;20206;-76
2021/06/02 00:34:49;;;;;;;2.20;1.17;;;;;;;17.47;41.16;100863.66;5090269;28;20224;-77
2021/06/02 00:37:15;;;;;;;1.27;1.17;;;;;;;17.44;41.00;100858.53;5094080;28;20209;-77
2021/06/02 00:39:46;;;;;;;1.67;1.33;;;;;;;17.39;41.04;100861.63;5093614;28;20258;-77
2021/06/02 00:42:12;;;;;;;1.43;1.10;;;;;;;17.34;41.35;100864.75;5094813;28;20201;-78
2021/06/02 00:44:40;;;;;;;1.47;1.30;;;;;;;17.32;41.66;100863.19;5092661;28;20706;-77
2021/06/02 00:47:06;;;;;;;3.17;1.40;;;;;;;17.29;42.13;100863.44;5094404;28;20202;-77
2021/06/02 00:49:32;;;;;;;3.30;1.10;;;;;;;17.28;42.14;100859.03;5092733;28;20259;-76
2021/06/02 00:52:00;;;;;;;1.80;1.30;;;;;;;17.25;42.54;100862.00;5093302;28;20669;-77
2021/06/02 00:54:30;;;;;;;1.43;1.33;;;;;;;17.22;42.53;100857.75;5094040;28;20225;-77
2021/06/02 00:57:02;;;;;;;2.07;1.33;;;;;;;17.18;42.52;100855.47;5086754;28;20200;-77
2021/06/02 00:59:31;;;;;;;1.27;1.10;;;;;;;17.14;42.71;100856.72;5091140;28;20617;-77
2021/06/02 01:02:00;;;;;;;1.97;1.20;;;;;;;17.10;42.82;100853.44;5092818;28;20210;-77
2021/06/02 01:04:27;;;;;;;2.80;1.40;;;;;;;17.07;42.62;100858.22;5092407;28;20568;-77
2021/06/02 01:06:54;;;;;;;1.60;1.20;;;;;;;17.02;42.81;100858.63;5093321;28;20648;-77
2021/06/02 01:09:21;;;;;;;5.03;1.20;;;;;;;16.95;43.03;100860.16;5092766;28;20207;-77
2021/06/02 01:11:48;;;;;;;1.40;1.20;;;;;;;16.89;42.98;100860.69;5091754;28;20201;-77
2021/06/02 01:14:18;;;;;;;2.57;1.30;;;;;;;16.85;43.43;100859.22;5080820;28;20229;-77
2021/06/02 01:16:46;;;;;;;2.90;1.07;;;;;;;16.81;43.68;100853.28;5092019;28;20202;-77
2021/06/02 01:19:18;;;;;;;1.93;1.33;;;;;;;16.77;43.73;100857.22;5093291;28;20204;-77
2021/06/02 01:21:53;;;;;;;1.90;1.20;;;;;;;16.73;44.13;100853.09;5092488;28;20206;-77
2021/06/02 01:24:20;;;;;;;1.47;1.23;;;;;;;16.71;44.11;100857.72;5092488;28;20256;-78
2021/06/02 01:26:49;;;;;;;2.03;1.13;;;;;;;16.67;43.72;100853.59;5092518;28;20224;-77
2021/06/02 01:29:15;;;;;;;2.10;1.27;;;;;;;16.61;43.58;100854.97;5088831;28;20261;-76
2021/06/02 01:31:55;;;;;;;1.80;1.10;;;;;;;16.57;43.84;100856.19;5091294;28;20205;-77
2021/06/02 01:34:38;;;;;;;1.80;1.27;;;;;;;16.52;43.69;100846.81;5091016;28;20228;-77
2021/06/02 01:37:24;;;;;;;3.33;1.00;;;;;;;16.48;44.17;100850.75;5087778;28;20204;-77
2021/06/02 01:40:24;;;;;;;1.43;1.20;;;;;;;16.43;44.16;100847.59;5086438;28;20207;-77
2021/06/02 01:43:05;;;;;;;1.37;1.20;;;;;;;16.38;44.42;100847.13;5084914;28;20218;-77
2021/06/02 01:46:09;;;;;;;1.80;1.10;;;;;;;16.36;44.23;100851.78;5092952;28;20195;-77
2021/06/02 01:48:41;;;;;;;2.00;1.30;;;;;;;16.30;44.56;100842.41;5090782;28;20209;-77
2021/06/02 01:51:57;;;;;;;2.30;1.20;;;;;;;16.24;44.67;100842.94;5087394;28;20589;-77
2021/06/02 01:54:55;;;;;;;1.00;1.00;;;;;;;16.20;45.12;100846.84;5089797;28;20225;-77
2021/06/02 01:57:57;;;;;;;2.53;1.00;;;;;;;16.18;45.34;100843.44;5092501;28;20196;-77
2021/06/02 02:00:54;;;;;;;1.30;1.20;;;;;;;16.15;45.80;100841.84;5092232;28;20204;-77
2021/06/02 02:04:03;;;;;;;1.00;0.90;;;;;;;16.13;45.57;100845.63;5088975;28;20230;-77
2021/06/02 02:06:49;;;;;;;1.10;1.00;;;;;;;16.04;45.28;100841.03;5090481;28;20204;-77
2021/06/02 02:09:23;;;;;;;1.27;1.17;;;;;;;15.97;45.36;100846.91;5091458;28;20204;-77
2021/06/02 02:11:51;;;;;;;1.87;1.20;;;;;;;15.90;45.67;100837.69;5084499;28;20205;-77
2021/06/02 02:14:52;;;;;;;1.73;1.23;;;;;;;15.84;46.18;100853.44;5092644;28;20231;-77
2021/06/02 02:18:09;;;;;;;1.67;1.33;;;;;;;15.78;46.21;100848.56;5092966;28;20649;-77
2021/06/02 02:20:39;;;;;;;1.20;0.93;;;;;;;15.75;47.08;100852.38;5029410;28;20195;-77
2021/06/02 02:23:36;;;;;;;2.07;1.30;;;;;;;15.76;47.08;100839.78;5029616;28;20206;-77
2021/06/02 02:26:17;;;;;;;1.97;1.20;;;;;;;15.76;47.38;100843.34;5036142;28;20204;-78
2021/06/02 02:28:56;;;;;;;3.33;1.33;;;;;;;15.75;47.77;100838.94;5092116;28;20211;-77
2021/06/02 02:31:43;;;;;;;2.80;1.10;;;;;;;15.74;47.72;100831.88;5076774;28;20209;-77
2021/06/02 02:34:24;;;;;;;1.63;1.03;;;;;;;15.73;48.02;100827.47;5085846;28;20227;-77
2021/06/02 02:36:54;;;;;;;1.10;1.00;;;;;;;15.74;48.08;100833.69;5084494;28;20204;-77
2021/06/02 02:39:26;;;;;;;2.97;1.23;;;;;;;15.71;48.17;100825.88;5091889;28;20205;-78
2021/06/02 02:42:04;;;;;;;4.97;1.50;;;;;;;15.66;47.87;100828.94;5090656;28;20204;-77
2021/06/02 02:44:49;;;;;;;1.57;1.43;;;;;;;15.60;48.30;100827.59;5091524;28;20228;-77
2021/06/02 02:47:22;;;;;;;3.10;1.37;;;;;;;15.56;48.24;100836.06;5093173;28;20296;-77
2021/06/02 02:49:59;;;;;;;2.17;1.30;;;;;;;15.52;48.27;100845.28;5091911;28;20238;-79
2021/06/02 02:52:37;;;;;;;3.20;1.53;;;;;;;15.48;48.72;100846.50;5091692;28;20294;-79
2021/06/02 02:55:09;;;;;;;3.20;1.27;;;;;;;15.44;48.94;100843.22;5092420;28;20220;-79
2021/06/02 02:57:41;;;;;;;3.13;1.30;;;;;;;15.44;48.83;100848.56;5091412;28;20208;-79
2021/06/02 03:00:11;;;;;;;1.97;1.00;;;;;;;15.43;49.35;100844.19;5092869;28;20642;-79
2021/06/02 03:02:45;;;;;;;2.43;1.57;;;;;;;15.41;49.33;100843.44;5091631;28;20208;-79
2021/06/02 03:05:15;;;;;;;1.77;1.53;;;;;;;15.39;48.87;100845.44;5093245;28;20220;-79
2021/06/02 03:07:46;;;;;;;5.13;1.63;;;;;;;15.34;49.24;100836.03;5092725;28;20677;-79
2021/06/02 03:10:14;;;;;;;2.73;1.57;;;;;;;15.27;49.21;100832.97;5091489;28;20735;-79
2021/06/02 03:12:55;;;;;;;2.30;1.40;;;;;;;15.23;49.03;100842.25;5092519;28;20650;-79
2021/06/02 03:15:38;;;;;;;4.83;1.67;;;;;;;15.18;48.77;100847.13;5093043;28;20211;-79
2021/06/02 03:18:17;;;;;;;2.50;1.20;;;;;;;15.12;48.84;100845.78;5086761;28;20607;-79
2021/06/02 03:20:50;;;;;;;2.23;1.40;;;;;;;15.08;48.80;100843.47;5091816;28;20279;-79
2021/06/02 03:23:30;;;;;;;2.97;1.50;;;;;;;15.04;49.10;100840.19;5092521;28;20200;-79
2021/06/02 03:26:03;;;;;;;1.50;1.40;;;;;;;15.02;49.55;100849.34;5093060;28;20192;-79
2021/06/02 03:28:42;;;;;;;2.57;1.30;;;;;;;15.01;50.13;100847.63;5092159;28;20208;-79
2021/06/02 03:31:19;;;;;;;1.80;1.20;;;;;;;14.98;50.13;100848.72;5092193;28;20569;-77
2021/06/02 03:34:09;;;;;;;1.53;1.20;;;;;;;14.95;50.24;100846.25;5091577;28;20222;-77
2021/06/02 03:36:43;;;;;;;1.73;1.60;;;;;;;14.92;50.29;100849.19;5091368;28;20207;-78
2021/06/02 03:39:13;;;;;;;3.13;1.30;;;;;;;14.91;50.62;100847.47;5089611;28;20211;-77
2021/06/02 03:41:53;;;;;;;2.30;1.63;;;;;;;14.91;50.96;100850.16;5090605;28;20208;-77
2021/06/02 03:44:36;;;;;;;4.03;1.93;;;;;;;14.92;51.12;100847.34;5090285;28;20227;-77
2021/06/02 03:47:20;;;;;;;4.20;1.60;;;;;;;14.91;51.68;100847.47;5090276;28;20207;-77
2021/06/02 03:49:56;;;;;;;4.07;1.47;;;;;;;14.90;51.77;100846.63;5091317;28;20574;-77
2021/06/02 03:52:36;;;;;;;2.43;1.73;;;;;;;14.87;51.92;100846.00;5091239;28;20662;-78
2021/06/02 03:55:08;;;;;;;2.90;1.50;;;;;;;14.85;52.08;100845.28;5093284;28;20219;-77
2021/06/02 03:57:36;;;;;;;3.30;2.00;;;;;;;14.83;52.03;100855.28;5089024;28;20239;-77
2021/06/02 04:00:10;;;;;;;2.23;1.77;;;;;;;14.82;52.24;100850.88;5093657;28;20200;-77
2021/06/02 04:02:56;;;;;;;3.20;1.60;;;;;;;14.80;52.29;100848.31;5092902;28;20269;-77
2021/06/02 04:05:35;;;;;;;1.93;1.73;;;;;;;14.79;52.98;100853.81;5094661;28;20220;-78
2021/06/02 04:08:14;;;;;;;3.00;2.00;;;;;;;14.78;52.87;100850.25;5094512;28;20200;-76
2021/06/02 04:10:45;;;;;;;3.10;1.90;;;;;;;14.78;53.03;100849.41;5094584;28;20220;-77
2021/06/02 04:13:31;;;;;;;2.23;1.93;;;;;;;14.76;53.39;100846.00;5094586;28;20615;-77
2021/06/02 04:16:10;;;;;;;2.23;2.03;;;;;;;14.74;53.70;100843.44;5093443;28;20207;-77
2021/06/02 04:18:38;;;;;;;3.23;2.17;;;;;;;14.72;54.08;100848.03;5094071;28;20203;-80
2021/06/02 04:21:05;;;;;;;3.47;1.83;;;;;;;14.70;54.18;100851.81;5097740;28;20271;-80
2021/06/02 04:23:34;;;;;;;2.93;2.40;;;;;;;14.68;54.52;100846.59;5092576;28;20220;-80
2021/06/02 04:26:01;;;;;;;3.70;2.60;;;;;;;14.66;54.72;100847.69;5100478;28;20241;-79
2021/06/02 04:28:28;;;;;;;2.70;2.17;;;;;;;14.65;55.00;100851.34;5099193;28;20570;-81
2021/06/02 04:31:03;;;;;;;3.53;2.67;;;;;;;14.62;55.10;100851.56;5095326;28;20256;-79
2021/06/02 04:33:33;;;;;;;3.20;2.40;;;;;;;14.59;55.40;100850.84;5096145;28;20223;-80
2021/06/02 04:36:01;;;;;;;3.27;2.20;;;;;;;14.58;56.03;100846.44;5096203;28;20201;-80
2021/06/02 04:38:29;;;;;;;3.30;2.53;;;;;;;14.58;56.20;100843.75;5097606;28;20204;-80
2021/06/02 04:40:58;;;;;;;5.13;2.50;;;;;;;14.61;56.40;100852.53;5098543;28;20204;-80
2021/06/02 04:43:25;;;;;;;3.77;2.70;;;;;;;14.63;56.89;100845.25;5092987;28;20634;-80
2021/06/02 04:45:56;;;;;;;4.57;2.37;;;;;;;14.68;56.93;100845.75;5096723;28;20518;-80
2021/06/02 04:48:23;;;;;;;8.43;3.27;;;;;;;14.71;56.93;100853.53;5094952;28;20263;-79
2021/06/02 04:50:56;;;;;;;3.33;2.93;;;;;;;14.74;57.48;100855.97;5095108;28;20223;-79
2021/06/02 04:54:16;;;;;;;7.83;3.33;;;;;;;14.77;57.38;100859.28;5092943;28;20220;-80
2021/06/02 04:57:12;;;;;;;3.20;2.83;;;;;;;14.83;58.51;100857.97;5048696;28;20210;-81
2021/06/02 05:00:14;;;;;;;3.60;3.07;;;;;;;14.89;58.94;100865.50;5096205;28;20200;-79
2021/06/02 05:03:15;;;;;;;4.00;3.03;;;;;;;14.97;58.98;100863.09;5091714;28;20662;-80
2021/06/02 05:06:12;;;;;;;3.80;3.37;;;;;;;15.02;58.68;100868.09;5097924;28;20302;-79
2021/06/02 05:09:08;;;;;;;6.43;3.63;;;;;;;15.03;59.11;100868.00;5050036;28;20208;-79
2021/06/02 05:12:17;;;;;;;4.80;3.57;;;;;;;15.09;59.12;100880.03;5092544;28;20289;-80
2021/06/02 05:15:16;;;;;;;4.40;3.50;;;;;;;15.12;59.21;100880.66;5095425;28;20232;-78
2021/06/02 05:18:03;;;;;;;4.10;3.17;;;;;;;15.14;59.30;100881.41;5094057;28;20200;-77
2021/06/02 05:24:44;;;;;;;5.30;3.33;;;;;;;15.21;59.88;100887.16;5034302;28;20288;-78
2021/06/02 05:28:04;;;;;;;4.93;3.83;;;;;;;15.24;59.57;100886.88;5088014;28;20212;-78
2021/06/02 05:30:49;;;;;;;4.03;3.63;;;;;;;15.27;60.13;100890.19;5061132;28;20238;-77
2021/06/02 05:33:52;;;;;;;6.53;4.40;;;;;;;15.32;60.14;100895.19;5080580;28;20203;-77
2021/06/02 05:36:53;;;;;;;5.10;3.87;;;;;;;15.37;60.00;100897.53;5094212;28;20196;-77
2021/06/02 05:39:54;;;;;;;4.53;3.80;;;;;;;15.39;60.26;100890.19;5094960;28;20196;-77
2021/06/02 05:42:22;;;;;;;4.93;4.03;;;;;;;15.41;60.58;100890.91;5095752;28;20613;-77
2021/06/02 05:45:21;;;;;;;4.30;3.90;;;;;;;15.42;60.15;100893.47;5094667;28;20614;-77
2021/06/02 05:48:17;;;;;;;6.53;4.10;;;;;;;15.43;60.21;100886.28;5092186;28;20210;-78
2021/06/02 05:51:17;;;;;;;5.90;3.83;;;;;;;15.55;60.93;100891.56;5086333;28;20232;-78
2021/06/02 05:54:03;;;;;;;6.40;4.20;;;;;;;15.73;61.18;100886.53;5088003;28;20227;-78
2021/06/02 05:57:00;;;;;;;4.70;4.20;;;;;;;15.93;61.38;100885.78;5087673;28;20564;-78
2021/06/02 06:00:15;;;;;;;7.83;3.93;;;;;;;16.21;61.09;100887.03;5085457;28;20414;-78
2021/06/02 06:03:26;;;;;;;6.30;3.80;;;;;;;16.46;60.60;100885.00;5030596;28;20216;-77
2021/06/02 06:06:03;;;;;;;6.00;4.10;;;;;;;16.72;60.46;100882.78;5017095;28;20211;-78
2021/06/02 06:09:14;;;;;;;6.73;4.50;;;;;;;16.92;59.71;100882.78;5085893;28;20204;-77
2021/06/02 06:12:12;;;;;;;4.93;3.73;;;;;;;17.03;58.87;100884.53;5092274;28;20235;-78
2021/06/02 06:15:09;;;;;;;6.83;4.13;;;;;;;17.07;58.31;100877.91;5097349;22;20228;-68
2021/06/02 06:17:46;;;;;;;5.90;4.23;;;;;;;17.07;58.14;100874.38;5095005;28;20311;-70
2021/06/02 06:20:54;;;;;;;6.47;4.87;;;;;;;17.11;58.37;100882.06;5097256;28;20196;-69
2021/06/02 06:23:47;;;;;;;4.97;4.47;;;;;;;17.20;58.39;100881.25;5100943;28;20203;-69
2021/06/02 06:26:18;;;;;;;4.83;4.30;;;;;;;17.34;58.36;100882.75;5103155;27;20200;-69
2021/06/02 06:28:52;;;;;;;7.07;4.13;;;;;;;17.49;58.08;100880.53;5112644;22;20204;-68
2021/06/02 06:31:22;;;;;;;7.23;4.57;;;;;;;17.65;57.85;100886.28;5083091;28;20770;-66
2021/06/02 06:33:50;;;;;;;6.30;4.20;;;;;;;17.81;57.52;100883.94;5075760;28;20213;-66
2021/06/02 06:36:20;;;;;;;5.17;4.40;;;;;;;17.97;57.16;100884.25;5085057;28;20234;-66
2021/06/02 06:38:58;;;;;;;4.67;4.10;;;;;;;18.16;56.95;100896.06;5081333;28;20242;-66
2021/06/02 06:41:30;;;;;;;5.10;4.13;;;;;;;18.32;56.56;100883.72;5083261;28;20204;-66
2021/06/02 06:43:57;;;;;;;5.20;4.50;;;;;;;18.46;56.12;100885.13;5088716;28;20248;-66
2021/06/02 06:46:26;;;;;;;5.37;4.20;;;;;;;18.60;56.18;100879.38;5084017;28;20199;-66
2021/06/02 06:48:55;;;;;;;5.30;4.70;;;;;;;18.71;55.34;100881.91;5077389;28;20271;-66
2021/06/02 06:51:23;;;;;;;5.63;4.33;;;;;;;18.79;54.95;100880.34;5086008;28;20221;-67
2021/06/02 06:53:50;;;;;;;6.70;4.53;;;;;;;18.87;54.79;100883.16;5081554;28;20209;-66
2021/06/02 06:56:18;;;;;;;7.33;4.83;;;;;;;18.97;55.24;100884.00;5089615;28;20625;-65
2021/06/02 06:58:47;;;;;;;8.83;4.83;;;;;;;19.11;55.14;100888.06;5083331;28;20227;-66
2021/06/02 07:01:15;;;;;;;8.07;4.37;;;;;;;19.23;54.89;100882.34;5087213;28;20200;-66
2021/06/02 07:03:41;;;;;;;7.63;4.37;;;;;;;19.34;54.00;100882.19;5082788;28;20254;-65
2021/06/02 07:06:08;;;;;;;5.80;4.80;;;;;;;19.46;53.97;100884.69;5088085;28;20228;-65
2021/06/02 07:08:35;;;;;;;6.20;4.73;;;;;;;19.56;53.99;100888.22;5081730;28;20213;-68
2021/06/02 07:11:01;;;;;;;5.83;4.77;;;;;;;19.70;53.81;100887.75;5085900;28;20229;-68
2021/06/02 07:13:30;;;;;;;6.57;4.50;;;;;;;19.80;53.87;100877.72;5087163;28;20202;-66
2021/06/02 07:16:01;;;;;;;6.43;4.90;;;;;;;19.95;52.75;100884.31;5082197;28;20213;-67
2021/06/02 07:18:28;;;;;;;7.87;5.30;;;;;;;20.04;52.75;100877.16;5086093;28;20540;-66
2021/06/02 07:20:55;;;;;;;5.57;5.00;;;;;;;20.15;52.31;100878.78;5083767;28;20577;-66
2021/06/02 07:23:21;;;;;;;6.37;4.80;;;;;;;20.23;52.04;100881.56;5084559;28;20210;-67
2021/06/02 07:25:47;;;;;;;6.07;5.00;;;;;;;20.28;51.68;100881.94;5088408;28;20565;-67
2021/06/02 07:28:14;;;;;;;4.77;4.33;;;;;;;20.36;52.16;100882.91;5084498;28;20211;-67
2021/06/02 07:30:40;;;;;;;6.80;4.70;;;;;;;20.48;52.20;100882.66;5084845;28;20598;-67
2021/06/02 07:33:08;;;;;;;5.80;5.20;;;;;;;20.58;51.87;100878.91;5082978;28;20204;-67
2021/06/02 07:35:34;;;;;;;6.80;4.70;;;;;;;20.69;51.69;100884.06;5086893;28;20209;-67
2021/06/02 07:38:00;;;;;;;5.77;4.90;;;;;;;20.79;51.48;100876.66;5088222;28;20205;-67
2021/06/02 07:40:26;;;;;;;5.20;4.23;;;;;;;20.89;51.48;100878.44;5086809;28;20242;-67
2021/06/02 07:42:53;;;;;;;6.83;4.57;;;;;;;20.98;51.02;100883.75;5085289;28;20244;-67
2021/06/02 07:45:19;;;;;;;4.90;4.20;;;;;;;21.10;50.94;100881.66;5083709;28;20214;-67
2021/06/02 07:47:45;;;;;;;6.67;4.60;;;;;;;21.23;50.75;100892.94;5084303;28;20209;-67
2021/06/02 07:50:13;;;;;;;4.87;4.37;;;;;;;21.33;50.35;100887.38;5086982;28;20244;-67
2021/06/02 07:52:39;;;;;;;7.53;4.70;;;;;;;21.39;49.98;100895.72;5086040;28;20236;-67
2021/06/02 07:55:06;;;;;;;5.37;4.40;;;;;;;21.44;49.25;100890.69;5087939;28;20617;-67
2021/06/02 07:57:32;;;;;;;5.50;4.40;;;;;;;21.47;49.68;100887.66;5082898;28;20260;-67
2021/06/02 07:59:58;;;;;;;5.73;4.30;;;;;;;21.52;49.52;100887.16;5086029;28;20219;-67
2021/06/02 08:02:24;;;;;;;5.88;4.50;;;;;;;21.57;49.59;100886.66;5082445;28;20213;-67
2021/06/02 08:04:50;;;;;;;6.17;4.60;;;;;;;21.63;49.88;100884.16;5084614;28;20222;-67
2021/06/02 08:07:18;;;;;;;6.20;4.23;;;;;;;21.74;49.57;100889.28;5082782;28;20575;-67
2021/06/02 08:09:45;;;;;;;4.97;4.50;;;;;;;21.81;49.25;100884.06;5084925;28;20635;-68
2021/06/02 08:12:12;;;;;;;5.67;4.30;;;;;;;21.92;49.44;100888.31;5085307;28;20227;-67
2021/06/02 08:14:38;;;;;;;4.97;4.23;;;;;;;21.99;48.89;100890.22;5087052;28;20702;-68
2021/06/02 08:17:04;;;;;;;5.15;4.07;;;;;;;22.09;48.85;100887.41;5085561;28;20273;-67
2021/06/02 08:19:30;;;;;;;6.30;4.25;;;;;;;22.20;48.92;100895.25;5084642;28;20227;-67
2021/06/02 08:21:56;;;;;;;5.85;4.60;;;;;;;22.29;49.04;100896.94;5080366;28;21123;-67
2021/06/02 08:24:24;;;;;;;5.50;4.20;;;;;;;22.39;48.56;100894.09;5079988;28;20204;-67
2021/06/02 08:26:50;;;;;;;5.28;4.22;;;;;;;22.45;48.30;100890.69;5080256;28;20208;-67
2021/06/02 08:29:16;;;;;;;4.05;3.60;;;;;;;22.50;48.45;100893.75;5078998;28;20728;-67
2021/06/02 08:31:42;;;;;;;5.10;4.60;;;;;;;22.59;48.42;100894.59;5079377;28;20216;-67
2021/06/02 08:34:08;;;;;;;4.72;4.20;;;;;;;22.64;47.76;100900.38;5082474;28;20640;-67
2021/06/02 08:36:34;;;;;;;5.28;4.28;;;;;;;22.72;47.74;100893.09;5084359;28;20215;-67
2021/06/02 08:39:00;;;;;;;5.10;4.32;;;;;;;22.80;47.27;100884.94;5088850;28;20245;-67
2021/06/02 08:41:28;;;;;;;5.90;4.45;;;;;;;22.92;47.22;100887.34;5088729;28;20566;-67
2021/06/02 08:43:54;;;;;;;5.28;4.05;;;;;;;23.01;47.24;100883.56;5079396;28;20203;-67
2021/06/02 08:46:20;;;;;;;5.53;4.45;;;;;;;23.03;46.49;100886.97;5079150;28;20204;-67
2021/06/02 08:48:49;;;;;;;4.85;3.80;;;;;;;23.03;46.84;100889.69;5078337;28;20609;-68
2021/06/02 08:51:16;;;;;;;6.40;4.18;;;;;;;23.07;46.79;100885.63;5077514;28;20764;-67
2021/06/02 08:53:42;;;;;;;5.68;4.30;;;;;;;23.12;47.14;100891.34;5083439;28;20211;-67
2021/06/02 08:56:09;;;;;;;5.07;4.00;;;;;;;23.20;47.29;100894.06;5090405;28;20629;-67
2021/06/02 08:58:36;;;;;;;7.00;4.55;;;;;;;23.31;46.66;100887.41;5090305;28;20211;-66
2021/06/02 09:01:03;;;;;;;4.30;4.00;;;;;;;23.34;46.46;100887.91;5089944;28;20204;-66
2021/06/02 09:03:30;;;;;;;4.43;4.03;;;;;;;23.41;46.59;100880.78;5089596;28;20211;-66
2021/06/02 09:05:57;;;;;;;4.90;3.88;;;;;;;23.47;45.89;100884.63;5090079;28;20211;-66
2021/06/02 09:08:24;;;;;;;6.05;4.38;;;;;;;23.46;45.95;100874.81;5088408;28;20200;-66
2021/06/02 09:10:50;;;;;;;5.43;4.22;;;;;;;23.48;46.42;100887.19;5088733;28;20259;-66
2021/06/02 09:13:19;;;;;;;5.05;4.60;;;;;;;23.48;46.49;100872.75;5088975;28;20460;-67
2021/06/02 09:15:48;;;;;;;7.43;4.60;;;;;;;23.49;46.89;100886.16;5088654;28;20257;-68
2021/06/02 09:18:17;;;;;;;6.05;4.20;;;;;;;23.56;46.59;100883.63;5090186;28;20570;-67
2021/06/02 09:20:46;;;;;;;5.35;4.50;;;;;;;23.64;46.27;100874.63;5090205;28;20257;-68
2021/06/02 09:23:32;;;;;;;6.15;4.07;;;;;;;23.68;46.14;100870.50;5089179;28;20227;-67
2021/06/02 09:26:19;;;;;;;7.88;4.00;;;;;;;23.73;46.36;100871.66;5083474;28;20666;-67
2021/06/02 09:28:49;;;;;;;4.53;4.13;;;;;;;23.81;45.68;100866.22;5081661;28;20223;-67
2021/06/02 09:31:25;;;;;;;5.45;4.75;;;;;;;23.86;45.82;100869.22;5076905;28;20309;-67
2021/06/02 09:33:53;;;;;;;4.82;4.22;;;;;;;23.90;46.11;100872.44;5079212;28;20198;-68
2021/06/02 09:36:26;;;;;;;5.55;4.18;;;;;;;24.00;46.56;100878.53;5087011;28;20212;-67
2021/06/02 09:38:53;;;;;;;6.95;4.75;;;;;;;24.16;47.31;100872.97;5087888;28;20229;-68
2021/06/02 09:41:19;;;;;;;5.80;4.30;;;;;;;24.27;45.97;100874.47;5091029;28;20652;-67
2021/06/02 09:43:45;;;;;;;5.95;4.57;;;;;;;24.33;45.42;100868.31;5088971;28;20211;-67
2021/06/02 09:46:14;;;;;;;5.15;4.50;;;;;;;24.33;45.50;100879.19;5087498;28;20457;-68
2021/06/02 09:48:52;;;;;;;5.70;3.95;;;;;;;24.35;45.04;100874.41;5091108;28;20228;-68
2021/06/02 09:51:36;;;;;;;4.88;4.20;;;;;;;24.43;45.65;100879.78;5085145;28;20600;-67
2021/06/02 09:54:04;;;;;;;4.35;3.95;;;;;;;24.54;45.50;100873.09;5077611;28;20212;-68
2021/06/02 09:56:36;;;;;;;5.88;4.05;;;;;;;24.63;44.57;100871.13;5080317;28;20723;-68
2021/06/02 09:59:03;;;;;;;4.22;3.85;;;;;;;24.66;44.47;100863.44;5073909;28;20583;-69
2021/06/02 10:01:51;;;;;;;5.32;4.35;;;;;;;24.73;44.44;100869.81;5071667;28;20638;-67
2021/06/02 10:04:19;;;;;;;6.55;4.85;;;;;;;24.76;44.24;100864.00;5072145;28;20201;-67
2021/06/02 10:06:47;;;;;;;4.45;3.95;;;;;;;24.76;45.00;100863.16;5071370;28;20201;-67
2021/06/02 10:09:13;;;;;;;4.55;4.13;;;;;;;24.81;44.59;100869.78;5078065;28;20231;-67
2021/06/02 10:11:55;;;;;;;4.78;3.90;;;;;;;24.85;45.21;100862.06;5079815;28;20235;-67
2021/06/02 10:14:21;;;;;;;5.05;4.38;;;;;;;24.91;44.11;100864.03;5082429;28;20202;-67
2021/06/02 10:16:47;;;;;;;5.10;4.18;;;;;;;24.89;44.03;100875.16;5078281;28;20697;-67
2021/06/02 10:19:13;;;;;;;6.78;4.70;;;;;;;24.91;44.26;100870.34;5082192;28;20299;-67
2021/06/02 10:21:46;;;;;;;6.10;4.43;;;;;;;24.98;44.77;100878.66;5082932;28;20208;-68
2021/06/02 10:24:12;;;;;;;5.28;4.72;;;;;;;25.09;44.77;100877.34;5087686;28;20210;-67
2021/06/02 10:26:39;;;;;;;5.25;4.40;;;;;;;25.15;44.59;100876.63;5087658;28;20204;-67
2021/06/02 10:29:05;;;;;;;5.28;4.38;;;;;;;25.21;44.54;100875.88;5085509;28;20260;-67
2021/06/02 10:31:32;;;;;;;6.07;4.40;;;;;;;25.26;44.54;100877.00;5081535;28;20215;-67
2021/06/02 10:33:58;;;;;;;5.10;4.10;;;;;;;25.27;43.94;100873.22;5089687;28;20200;-67
2021/06/02 10:36:25;;;;;;;5.50;4.57;;;;;;;25.32;44.58;100874.56;5084871;28;20196;-67
2021/06/02 10:38:56;;;;;;;5.22;4.63;;;;;;;25.27;44.50;100880.56;5089460;28;20241;-68
2021/06/02 10:41:27;;;;;;;4.55;3.80;;;;;;;25.27;44.44;100877.84;5086815;28;20218;-67
2021/06/02 10:44:00;;;;;;;6.50;4.25;;;;;;;25.33;44.76;100877.09;5080617;28;20211;-67
2021/06/02 10:46:27;;;;;;;4.68;4.13;;;;;;;25.34;44.13;100876.06;5084019;28;20641;-69
2021/06/02 10:48:54;;;;;;;5.85;4.25;;;;;;;25.35;44.34;100877.75;5086076;28;20219;-64
2021/06/02 10:51:26;;;;;;;4.88;4.38;;;;;;;25.39;44.72;100868.19;5080150;28;20243;-66
2021/06/02 10:54:07;;;;;;;4.93;4.18;;;;;;;25.54;45.56;100874.47;5083918;28;20210;-66
2021/06/02 10:56:34;;;;;;;4.95;4.43;;;;;;;25.65;44.89;100878.63;5090077;28;20203;-67
2021/06/02 10:59:00;;;;;;;5.80;4.53;;;;;;;25.73;44.87;100875.81;5091441;28;20230;-65
2021/06/02 11:01:30;;;;;;;7.63;4.40;;;;;;;25.81;44.87;100874.84;5088250;28;20206;-65
2021/06/02 11:04:12;;;;;;;4.63;4.22;;;;;;;25.85;44.76;100882.44;5073058;28;20196;-65
2021/06/02 11:06:43;;;;;;;5.57;4.18;;;;;;;25.89;44.00;100880.19;5075426;28;20257;-66
2021/06/02 11:09:16;;;;;;;5.72;4.20;;;;;;;25.90;43.96;100873.72;5079398;28;20231;-66
2021/06/02 11:11:45;;;;;;;5.78;4.43;;;;;;;25.92;44.35;100877.09;5086298;28;21801;-65
2021/06/02 11:14:23;;;;;;;6.07;4.03;;;;;;;25.92;44.55;100877.09;5080168;28;20204;-65
2021/06/02 11:16:51;;;;;;;4.82;3.90;;;;;;;25.98;44.69;100876.31;5084543;28;20192;-65
2021/06/02 11:19:18;;;;;;;5.10;4.00;;;;;;;26.05;44.00;100877.25;5078368;28;20705;-65
2021/06/02 11:21:56;;;;;;;6.00;3.97;;;;;;;26.07;43.76;100875.16;5076343;28;20200;-65
2021/06/02 11:24:44;;;;;;;5.95;3.92;;;;;;;26.08;44.21;100871.41;5079297;28;20281;-65
2021/06/02 11:27:30;;;;;;;4.80;3.88;;;;;;;26.10;43.74;100863.03;5084726;28;20200;-65
2021/06/02 11:30:17;;;;;;;4.20;3.80;;;;;;;26.11;43.72;100862.00;5089231;28;20288;-65
2021/06/02 11:32:49;;;;;;;4.97;4.10;;;;;;;26.12;43.52;100855.50;5080967;28;20645;-65
2021/06/02 11:35:16;;;;;;;4.03;3.63;;;;;;;26.14;43.58;100864.34;5092857;28;20202;-65
2021/06/02 11:37:42;;;;;;;6.25;4.40;;;;;;;26.16;44.92;100868.53;5095720;28;20201;-65
2021/06/02 11:40:13;;;;;;;4.70;4.22;;;;;;;26.20;44.04;100863.53;5096402;28;20219;-65
2021/06/02 11:42:42;;;;;;;5.10;3.85;;;;;;;26.21;43.83;100859.78;5095355;28;20583;-65
2021/06/02 11:45:11;;;;;;;4.35;3.92;;;;;;;26.26;44.35;100869.09;5092153;28;20205;-65
2021/06/02 11:47:42;;;;;;;4.15;3.75;;;;;;;26.33;44.28;100862.88;5082549;28;20687;-65
2021/06/02 11:50:10;;;;;;;4.63;3.50;;;;;;;26.38;44.09;100865.84;5079796;28;20230;-65
2021/06/02 11:52:37;;;;;;;4.57;3.65;;;;;;;26.33;42.96;100857.44;5080334;28;20636;-65
2021/06/02 11:55:06;;;;;;;7.13;4.10;;;;;;;26.27;43.22;100856.28;5078045;28;20554;-65
2021/06/02 11:57:36;;;;;;;4.07;3.67;;;;;;;26.28;43.88;100860.69;5085043;28;20216;-65
2021/06/02 12:00:07;;;;;;;4.25;3.60;;;;;;;26.33;43.50;100858.28;5080045;28;20640;-65
2021/06/02 12:02:33;;;;;;;4.10;3.67;;;;;;;26.38;43.30;100861.25;5080299;28;20215;-65